DKR weather

Léopold Sédar Senghor International Airport
Dakar, Dakar Region, Senegal

Public forecast

Using degrees Celsius for public forecast. Weather courtesy of forecast.io.

Current aviation weather report (METAR) for Léopold Sédar Senghor International Airport

Retrieved 2020/06/01 17:00 UTC (14 minutes ago):

GOOY 011700Z 36014KT 9999 FEW010 25/20 Q1014

Aviation forecast (TAF) for Léopold Sédar Senghor International Airport

Retrieved 2020/06/01 12:12 UTC (5 hours ago):

TAF GOOY 011130Z 0112/0218 34010KT CAVOK